sim
Sign-in with your pilot id or email,
or register
Callsign
Passwort

Schedule Details

Flight Number: DLH2307 (2)
Departure: Amsterdam Schiphol Airport (EHAM) at 15:45
Arrival: Munich Airport (EDDM) at 17:05
Route: Lufthansa Passenger Schedule. Enter filed route here before submitting Pirep.

Weather Information
Getting current METAR information for EHAM 250255Z 19013KT 9999 FEW022 10/07 Q0993 NOSIG
Getting current METAR information for EDDM 250250Z 17004KT 140V210 9999 -RA FEW008 SCT040 13/12 Q1001 TEMPO RA BKN008

Schedule Frequency

Route Map